Time;durP1;ratioP1;P1;durP2;ratioP2;P2;SDS_P1;SDS_P2;PMS_P1;PMS_P2;Temp;Humidity;BMP_temperature;BMP_pressure;BME280_temperature;BME280_humidity;BME280_pressure;Samples;Min_cycle;Max_cycle;Signal;HPM_P1;HPM_P2
2023/08/25 00:00:09;;;;;;;5.78;1.92;;;21.70;99.90;;;;;;5010674;28;20033;-37
2023/08/25 00:02:38;;;;;;;6.18;2.08;;;21.60;99.90;;;;;;5010332;28;20484;-39
2023/08/25 00:05:05;;;;;;;4.20;1.90;;;21.60;99.90;;;;;;5011884;28;20034;-39
2023/08/25 00:07:30;;;;;;;6.20;1.65;;;21.60;99.90;;;;;;5011664;28;20029;-41
2023/08/25 00:09:57;;;;;;;5.70;1.90;;;21.60;99.90;;;;;;5009937;28;20041;-40
2023/08/25 00:12:22;;;;;;;7.88;1.83;;;21.60;99.90;;;;;;5011427;28;20076;-39
2023/08/25 00:14:48;;;;;;;3.65;1.92;;;21.60;99.90;;;;;;5011486;28;20026;-40
2023/08/25 00:17:14;;;;;;;5.28;1.83;;;21.60;99.90;;;;;;5011364;28;20030;-40
2023/08/25 00:19:40;;;;;;;5.07;2.08;;;21.60;99.90;;;;;;5012430;28;20041;-40
2023/08/25 00:22:06;;;;;;;4.53;1.98;;;21.60;99.90;;;;;;5015341;28;20030;-39
2023/08/25 00:24:34;;;;;;;4.72;2.00;;;21.60;99.90;;;;;;5015476;28;20022;-39
2023/08/25 00:27:00;;;;;;;4.75;1.80;;;21.60;99.90;;;;;;5015437;28;20030;-39
2023/08/25 00:29:26;;;;;;;3.88;1.92;;;21.60;99.90;;;;;;5015144;28;20030;-39
2023/08/25 00:31:51;;;;;;;5.65;1.80;;;21.50;99.90;;;;;;5015076;28;20387;-40
2023/08/25 00:34:17;;;;;;;5.35;2.40;;;21.50;99.90;;;;;;5015018;28;20037;-42
2023/08/25 00:36:43;;;;;;;3.28;1.83;;;21.50;99.90;;;;;;5015110;28;20088;-39
2023/08/25 00:39:09;;;;;;;3.92;1.67;;;21.50;99.90;;;;;;5014630;28;20040;-40
2023/08/25 00:41:35;;;;;;;6.75;2.10;;;21.50;99.90;;;;;;5013862;28;20500;-40
2023/08/25 00:44:01;;;;;;;6.40;1.80;;;21.50;99.90;;;;;;5014987;28;20056;-39
2023/08/25 00:46:26;;;;;;;5.63;2.03;;;21.50;99.90;;;;;;5014894;28;20062;-40
2023/08/25 00:48:52;;;;;;;7.95;2.05;;;21.50;99.90;;;;;;5014446;28;20033;-40
2023/08/25 00:51:18;;;;;;;6.15;2.00;;;21.50;99.90;;;;;;5014747;28;20025;-40
2023/08/25 00:53:45;;;;;;;6.50;1.85;;;21.40;99.90;;;;;;5014791;28;20047;-40
2023/08/25 00:56:13;;;;;;;4.68;1.63;;;21.40;99.90;;;;;;5014743;28;20032;-39
2023/08/25 00:58:38;;;;;;;3.67;1.42;;;21.40;99.90;;;;;;5014604;28;20479;-39
2023/08/25 01:01:05;;;;;;;5.35;1.90;;;21.50;99.90;;;;;;5014471;28;20034;-43
2023/08/25 01:03:31;;;;;;;4.22;1.75;;;21.40;99.90;;;;;;5014533;28;20057;-39
2023/08/25 01:05:57;;;;;;;5.68;1.95;;;21.40;99.90;;;;;;5014590;28;20487;-40
2023/08/25 01:08:24;;;;;;;6.40;2.28;;;21.40;99.90;;;;;;5014538;28;20067;-40
2023/08/25 01:11:01;;;;;;;5.82;1.88;;;21.40;99.90;;;;;;5014221;28;20025;-39
2023/08/25 01:13:44;;;;;;;6.68;2.08;;;21.40;99.90;;;;;;5014459;28;20387;-40
2023/08/25 01:16:14;;;;;;;4.45;1.92;;;21.40;99.90;;;;;;5014340;28;20041;-39
2023/08/25 01:18:42;;;;;;;4.55;1.75;;;21.40;99.90;;;;;;5014472;28;20426;-39
2023/08/25 01:21:09;;;;;;;6.63;1.60;;;21.40;99.90;;;;;;5014201;28;20103;-40
2023/08/25 01:23:44;;;;;;;7.03;1.58;;;21.40;99.90;;;;;;5012872;28;20083;-41
2023/08/25 01:26:10;;;;;;;3.60;1.55;;;21.40;99.90;;;;;;5014097;28;20029;-40
2023/08/25 01:28:42;;;;;;;9.18;1.98;;;21.40;99.90;;;;;;5013941;28;20030;-39
2023/08/25 01:31:08;;;;;;;4.47;1.88;;;21.30;99.90;;;;;;5013646;28;20060;-39
2023/08/25 01:33:34;;;;;;;5.40;1.42;;;21.30;99.90;;;;;;5014023;28;20113;-41
2023/08/25 01:36:20;;;;;;;9.63;1.58;;;21.30;99.90;;;;;;5014127;28;20079;-40
2023/08/25 01:39:06;;;;;;;5.82;1.70;;;21.30;99.90;;;;;;5013464;28;20083;-40
2023/08/25 01:41:41;;;;;;;8.50;2.08;;;21.30;99.90;;;;;;5013926;28;20025;-40
2023/08/25 01:44:11;;;;;;;4.15;1.52;;;21.30;99.90;;;;;;5013951;28;20074;-41
2023/08/25 01:46:38;;;;;;;6.47;1.63;;;21.30;99.90;;;;;;5013845;28;20439;-40
2023/08/25 01:49:06;;;;;;;5.45;1.73;;;21.30;99.90;;;;;;5013771;28;20025;-40
2023/08/25 01:51:32;;;;;;;3.08;1.50;;;21.30;99.90;;;;;;5013735;28;20034;-42
2023/08/25 01:53:59;;;;;;;3.60;1.58;;;21.30;99.90;;;;;;5013628;28;20030;-39
2023/08/25 01:56:25;;;;;;;6.30;1.80;;;21.30;99.90;;;;;;5013656;28;20030;-44
2023/08/25 01:58:51;;;;;;;5.25;1.50;;;21.30;99.90;;;;;;5013356;28;20018;-40
2023/08/25 02:01:16;;;;;;;7.88;2.00;;;21.30;99.90;;;;;;5013489;28;20029;-40
2023/08/25 02:03:42;;;;;;;5.65;1.88;;;21.30;99.90;;;;;;5013433;28;20076;-40
2023/08/25 02:06:11;;;;;;;10.77;1.58;;;21.30;99.90;;;;;;5013487;28;20538;-40
2023/08/25 02:08:37;;;;;;;4.35;1.40;;;21.30;99.90;;;;;;5013384;28;20034;-39
2023/08/25 02:11:04;;;;;;;5.97;1.65;;;21.30;99.90;;;;;;5013120;28;20116;-40
2023/08/25 02:13:29;;;;;;;5.18;1.60;;;21.30;99.90;;;;;;5013298;28;20034;-39
2023/08/25 02:15:55;;;;;;;4.43;1.75;;;21.30;99.90;;;;;;5013289;28;20033;-41
2023/08/25 02:18:21;;;;;;;4.20;1.65;;;21.30;99.90;;;;;;5013043;28;20044;-39
2023/08/25 02:20:46;;;;;;;6.32;1.67;;;21.30;99.90;;;;;;5012959;28;20092;-39
2023/08/25 02:23:12;;;;;;;2.65;1.50;;;21.30;99.90;;;;;;5011728;28;20026;-41
2023/08/25 02:25:38;;;;;;;5.25;1.58;;;21.30;99.90;;;;;;5013183;28;20080;-41
2023/08/25 02:28:04;;;;;;;11.57;1.77;;;21.30;99.90;;;;;;5012933;28;20022;-39
2023/08/25 02:30:30;;;;;;;5.50;1.77;;;21.30;99.90;;;;;;5012681;28;20036;-40
2023/08/25 02:32:56;;;;;;;4.43;1.67;;;21.30;99.90;;;;;;5012806;28;20022;-39
2023/08/25 02:35:22;;;;;;;7.07;1.75;;;21.30;99.90;;;;;;5012899;28;20026;-39
2023/08/25 02:38:05;;;;;;;3.00;1.50;;;21.30;99.90;;;;;;5012630;28;20112;-41
2023/08/25 02:40:31;;;;;;;4.72;1.85;;;21.30;99.90;;;;;;5012570;28;20034;-39
2023/08/25 02:43:00;;;;;;;7.15;1.75;;;21.30;99.90;;;;;;5012109;28;20380;-39
2023/08/25 02:45:26;;;;;;;4.55;1.95;;;21.30;99.90;;;;;;5012660;28;20483;-40
2023/08/25 02:47:53;;;;;;;5.30;1.83;;;21.30;99.90;;;;;;5012949;28;20474;-39
2023/08/25 02:50:19;;;;;;;3.88;1.60;;;21.40;99.90;;;;;;5012326;28;20030;-40
2023/08/25 02:52:45;;;;;;;5.90;1.65;;;21.30;99.90;;;;;;5012568;28;20026;-41
2023/08/25 02:55:14;;;;;;;3.58;1.60;;;21.40;99.90;;;;;;5012657;28;20054;-43
2023/08/25 02:57:40;;;;;;;8.05;1.40;;;21.40;99.90;;;;;;5012418;28;20104;-39
2023/08/25 03:00:08;;;;;;;4.15;1.70;;;21.30;99.90;;;;;;5012151;28;20172;-39
2023/08/25 03:02:33;;;;;;;5.72;1.65;;;21.40;99.90;;;;;;5012306;28;20045;-42
2023/08/25 03:04:59;;;;;;;3.80;1.73;;;21.40;99.90;;;;;;5012377;28;20037;-39
2023/08/25 03:07:25;;;;;;;3.90;1.75;;;21.30;99.90;;;;;;5012264;28;20021;-42
2023/08/25 03:09:50;;;;;;;3.72;1.65;;;21.30;99.90;;;;;;5012093;28;20025;-39
2023/08/25 03:12:16;;;;;;;5.95;1.67;;;21.30;99.90;;;;;;5012593;28;20029;-39
2023/08/25 03:14:41;;;;;;;5.90;1.65;;;21.30;99.90;;;;;;5012121;28;20483;-42
2023/08/25 03:17:07;;;;;;;4.45;1.77;;;21.30;99.90;;;;;;5012088;28;20034;-40
2023/08/25 03:19:33;;;;;;;6.20;1.67;;;21.20;99.90;;;;;;5011958;28;20148;-40
2023/08/25 03:21:58;;;;;;;7.97;1.90;;;21.20;99.90;;;;;;5012676;28;20022;-39
2023/08/25 03:24:24;;;;;;;3.80;1.60;;;21.20;99.90;;;;;;5012789;28;20033;-39
2023/08/25 03:26:49;;;;;;;4.78;1.77;;;21.30;99.90;;;;;;5012252;28;20491;-39
2023/08/25 03:29:15;;;;;;;6.13;1.90;;;21.30;99.90;;;;;;5011617;28;20116;-40
2023/08/25 03:31:40;;;;;;;5.38;2.00;;;21.20;99.90;;;;;;5011894;28;20030;-39
2023/08/25 03:34:06;;;;;;;5.90;1.90;;;21.30;99.90;;;;;;5011956;28;20041;-41
2023/08/25 03:36:33;;;;;;;6.55;1.85;;;21.30;99.90;;;;;;5011897;28;20102;-38
2023/08/25 03:38:59;;;;;;;9.05;2.45;;;21.30;99.90;;;;;;5011998;28;20030;-40
2023/08/25 03:41:24;;;;;;;8.15;2.08;;;21.30;99.90;;;;;;5011814;28;20484;-36
2023/08/25 03:43:50;;;;;;;5.25;2.05;;;21.30;99.90;;;;;;5011711;28;20030;-37
2023/08/25 03:46:16;;;;;;;10.85;2.17;;;21.30;99.90;;;;;;5011793;28;20442;-38
2023/08/25 03:48:41;;;;;;;3.25;1.77;;;21.30;99.90;;;;;;5011535;28;20482;-43
2023/08/25 03:51:07;;;;;;;5.85;1.75;;;21.30;99.90;;;;;;5011699;28;20026;-36
2023/08/25 03:53:34;;;;;;;4.65;1.80;;;21.30;99.90;;;;;;5011639;28;20030;-36
2023/08/25 03:56:00;;;;;;;4.93;2.00;;;21.30;99.90;;;;;;5011642;28;20053;-38
2023/08/25 03:58:25;;;;;;;4.60;1.63;;;21.30;99.90;;;;;;5011387;28;20128;-36
2023/08/25 04:00:55;;;;;;;5.20;1.92;;;21.30;99.90;;;;;;5011384;28;20045;-36
2023/08/25 04:03:21;;;;;;;3.88;1.95;;;21.30;99.90;;;;;;5011699;28;20136;-37
2023/08/25 04:05:46;;;;;;;8.73;2.03;;;21.30;99.90;;;;;;5011467;28;20656;-37
2023/08/25 04:08:12;;;;;;;6.53;2.08;;;21.20;99.90;;;;;;5011417;28;20080;-36
2023/08/25 04:10:39;;;;;;;7.78;1.73;;;21.20;99.90;;;;;;5011214;28;20108;-36
2023/08/25 04:13:05;;;;;;;8.65;2.03;;;21.20;99.90;;;;;;5011318;28;20036;-37
2023/08/25 04:15:30;;;;;;;5.57;1.98;;;21.20;99.90;;;;;;5011384;28;20018;-39
2023/08/25 04:17:56;;;;;;;5.35;1.83;;;21.20;99.90;;;;;;5011304;28;20030;-36
2023/08/25 04:20:21;;;;;;;5.30;1.77;;;21.20;99.90;;;;;;5011098;28;20065;-36
2023/08/25 04:22:47;;;;;;;6.78;1.85;;;21.20;99.90;;;;;;5011302;28;20033;-41
2023/08/25 04:25:13;;;;;;;5.68;2.38;;;21.20;99.90;;;;;;5011371;28;20136;-41
2023/08/25 04:27:39;;;;;;;5.40;2.10;;;21.20;99.90;;;;;;5011187;28;20023;-38
2023/08/25 04:30:05;;;;;;;6.85;1.90;;;21.20;99.90;;;;;;5011167;28;20029;-35
2023/08/25 04:32:31;;;;;;;6.05;1.90;;;21.10;99.90;;;;;;5011236;28;20113;-40
2023/08/25 04:34:57;;;;;;;5.90;2.15;;;21.10;99.90;;;;;;5011248;28;20101;-36
2023/08/25 04:37:23;;;;;;;3.75;1.85;;;21.10;99.90;;;;;;5011079;28;20029;-36
2023/08/25 04:39:48;;;;;;;3.33;1.90;;;21.20;99.90;;;;;;5011063;28;20077;-36
2023/08/25 04:42:14;;;;;;;4.22;2.08;;;21.10;99.90;;;;;;5011144;28;20068;-39
2023/08/25 04:44:39;;;;;;;6.38;2.03;;;21.10;99.90;;;;;;5011180;28;20080;-36
2023/08/25 04:47:05;;;;;;;6.60;2.17;;;21.10;99.90;;;;;;5011048;28;20026;-35
2023/08/25 04:49:31;;;;;;;6.10;2.08;;;21.10;99.90;;;;;;5010957;28;20105;-36
2023/08/25 04:51:58;;;;;;;6.35;2.30;;;21.10;99.90;;;;;;5011016;28;20080;-36
2023/08/25 04:54:24;;;;;;;9.40;2.55;;;21.10;99.90;;;;;;5011021;28;20105;-39
2023/08/25 04:56:50;;;;;;;4.22;1.80;;;21.10;99.90;;;;;;5010967;28;20122;-37
2023/08/25 04:59:15;;;;;;;8.10;2.20;;;21.10;99.90;;;;;;5010684;28;20100;-36
2023/08/25 05:01:41;;;;;;;7.00;2.33;;;21.10;99.90;;;;;;5011158;28;20029;-35
2023/08/25 05:04:08;;;;;;;5.88;1.77;;;21.00;99.90;;;;;;5010877;28;20525;-39
2023/08/25 05:06:33;;;;;;;8.75;2.10;;;21.00;99.90;;;;;;5014447;28;20072;-38
2023/08/25 05:08:59;;;;;;;5.65;2.25;;;21.10;99.90;;;;;;5014247;28;20037;-37
2023/08/25 05:11:25;;;;;;;9.27;2.30;;;21.00;99.90;;;;;;5014280;28;20029;-37
2023/08/25 05:13:51;;;;;;;6.90;2.60;;;21.00;99.90;;;;;;5014415;28;20038;-37
2023/08/25 05:16:18;;;;;;;7.15;2.13;;;21.00;99.90;;;;;;5014489;28;20090;-39
2023/08/25 05:18:44;;;;;;;6.68;2.17;;;21.10;99.90;;;;;;5014442;28;20029;-40
2023/08/25 05:21:10;;;;;;;10.38;2.90;;;21.00;99.90;;;;;;5014175;28;20038;-37
2023/08/25 05:23:36;;;;;;;7.40;2.30;;;21.00;99.90;;;;;;5014337;28;20109;-36
2023/08/25 05:26:02;;;;;;;6.20;2.30;;;21.00;99.90;;;;;;5014143;28;20392;-36
2023/08/25 05:28:28;;;;;;;7.20;2.60;;;21.10;99.90;;;;;;5014235;28;20034;-37
2023/08/25 05:30:54;;;;;;;5.75;2.08;;;21.10;99.90;;;;;;5013891;28;20030;-37
2023/08/25 05:33:19;;;;;;;5.85;2.55;;;21.10;99.90;;;;;;5014050;28;20112;-35
2023/08/25 05:35:45;;;;;;;8.05;2.53;;;21.10;99.90;;;;;;5014175;28;20057;-36
2023/08/25 05:38:12;;;;;;;10.40;2.60;;;21.10;99.90;;;;;;5013845;28;20442;-38
2023/08/25 05:40:38;;;;;;;3.67;2.25;;;21.10;99.90;;;;;;5013730;28;20068;-37
2023/08/25 05:43:03;;;;;;;7.53;2.50;;;21.10;99.90;;;;;;5013988;28;20061;-36
2023/08/25 05:45:29;;;;;;;8.65;2.58;;;21.10;99.90;;;;;;5014309;28;20109;-36
2023/08/25 05:47:54;;;;;;;8.52;2.35;;;21.20;99.90;;;;;;5013743;28;20088;-38
2023/08/25 05:50:20;;;;;;;8.50;2.42;;;21.20;99.90;;;;;;5013563;28;20029;-40
2023/08/25 05:52:47;;;;;;;7.18;2.70;;;21.30;99.90;;;;;;5013664;28;20033;-39
2023/08/25 05:55:13;;;;;;;7.43;2.33;;;21.30;99.90;;;;;;5013927;28;20063;-38
2023/08/25 05:57:39;;;;;;;4.65;2.17;;;21.40;99.90;;;;;;5013727;28;20022;-38
2023/08/25 06:00:06;;;;;;;6.22;2.15;;;21.40;99.90;;;;;;5013658;28;20014;-39
2023/08/25 06:02:32;;;;;;;6.25;2.10;;;21.40;99.90;;;;;;5013483;28;20030;-40
2023/08/25 06:04:58;;;;;;;7.85;2.10;;;21.50;99.90;;;;;;5013575;28;20029;-37
2023/08/25 06:07:24;;;;;;;6.43;2.03;;;21.50;99.90;;;;;;5013285;28;20034;-37
2023/08/25 06:09:49;;;;;;;3.20;2.03;;;21.60;99.90;;;;;;5013429;28;20045;-38
2023/08/25 06:12:15;;;;;;;9.43;2.20;;;21.60;99.90;;;;;;5013402;28;20033;-35
2023/08/25 06:14:41;;;;;;;8.10;2.30;;;21.60;99.90;;;;;;5013356;28;20026;-39
2023/08/25 06:17:06;;;;;;;6.13;2.22;;;21.60;99.90;;;;;;5012221;28;20029;-38
2023/08/25 06:19:33;;;;;;;7.63;2.05;;;21.70;99.90;;;;;;5013009;28;20182;-36
2023/08/25 06:21:58;;;;;;;3.30;2.10;;;21.70;99.90;;;;;;5013086;28;20026;-37
2023/08/25 06:24:25;;;;;;;8.82;2.30;;;21.70;99.90;;;;;;5013116;28;20029;-38
2023/08/25 06:26:51;;;;;;;7.28;2.00;;;21.70;99.90;;;;;;5011855;28;20033;-39
2023/08/25 06:29:21;;;;;;;8.40;2.30;;;21.70;99.90;;;;;;5013238;28;20026;-40
2023/08/25 06:31:48;;;;;;;6.22;2.25;;;21.80;99.90;;;;;;5013677;28;20030;-40
2023/08/25 06:34:14;;;;;;;6.70;2.25;;;21.80;99.90;;;;;;5012970;28;20029;-42
2023/08/25 06:36:39;;;;;;;5.38;2.10;;;21.80;99.90;;;;;;5013321;28;20029;-41
2023/08/25 06:39:05;;;;;;;6.10;2.20;;;21.80;99.90;;;;;;5012553;28;20099;-38
2023/08/25 06:41:31;;;;;;;7.15;2.25;;;21.80;99.90;;;;;;5013013;28;20045;-38
2023/08/25 06:43:58;;;;;;;4.22;2.20;;;21.90;99.90;;;;;;5012809;28;20072;-38
2023/08/25 06:46:24;;;;;;;7.10;2.00;;;21.90;99.90;;;;;;5012726;28;20025;-37
2023/08/25 06:48:50;;;;;;;4.15;2.45;;;21.90;99.90;;;;;;5012510;28;20029;-40
2023/08/25 06:51:16;;;;;;;4.78;2.05;;;21.90;99.90;;;;;;5012417;28;20030;-38
2023/08/25 06:53:41;;;;;;;4.38;2.22;;;21.90;99.90;;;;;;5012619;28;20030;-38
2023/08/25 06:56:07;;;;;;;5.38;2.20;;;22.00;99.90;;;;;;5012623;28;20083;-39
2023/08/25 06:58:33;;;;;;;4.75;2.25;;;22.00;99.90;;;;;;5012780;28;20511;-44
2023/08/25 07:00:59;;;;;;;4.57;2.35;;;22.00;99.90;;;;;;5012346;28;20033;-39
2023/08/25 07:03:24;;;;;;;8.45;2.35;;;22.00;99.90;;;;;;5012501;28;20040;-40
2023/08/25 07:05:57;;;;;;;5.07;2.15;;;22.00;99.90;;;;;;5012312;28;20029;-42
2023/08/25 07:08:22;;;;;;;4.80;2.20;;;21.90;99.90;;;;;;5012791;28;20026;-44
2023/08/25 07:10:48;;;;;;;4.75;2.20;;;22.00;99.90;;;;;;5013122;28;20438;-40
2023/08/25 07:13:14;;;;;;;4.40;2.22;;;22.00;99.90;;;;;;5012515;28;20026;-37
2023/08/25 07:15:39;;;;;;;3.05;1.95;;;22.00;99.90;;;;;;5012260;28;20026;-35
2023/08/25 07:18:05;;;;;;;5.55;1.83;;;22.10;99.90;;;;;;5012195;28;20026;-35
2023/08/25 07:20:30;;;;;;;5.63;2.20;;;22.10;99.90;;;;;;5011863;28;20034;-38
2023/08/25 07:22:56;;;;;;;3.78;2.00;;;22.10;99.90;;;;;;5012121;28;20026;-38
2023/08/25 07:25:22;;;;;;;4.32;2.00;;;22.10;99.90;;;;;;5012174;28;20444;-35
2023/08/25 07:27:47;;;;;;;3.72;1.95;;;22.10;99.90;;;;;;5011970;28;20041;-39
2023/08/25 07:30:13;;;;;;;5.00;2.38;;;22.10;99.90;;;;;;5011783;28;20076;-39
2023/08/25 07:32:39;;;;;;;4.72;2.08;;;22.10;99.90;;;;;;5012447;28;20036;-40
2023/08/25 07:35:05;;;;;;;2.70;1.80;;;22.10;99.90;;;;;;5011893;28;20558;-40
2023/08/25 07:37:30;;;;;;;2.97;1.70;;;22.10;99.90;;;;;;5011878;28;20049;-41
2023/08/25 07:39:56;;;;;;;3.17;1.83;;;22.10;99.90;;;;;;5011805;28;20022;-39
2023/08/25 07:42:23;;;;;;;3.08;1.98;;;22.10;99.90;;;;;;5011879;28;20030;-38
2023/08/25 07:44:49;;;;;;;2.75;1.75;;;22.10;99.90;;;;;;5011802;28;20108;-39
2023/08/25 07:47:15;;;;;;;4.47;2.05;;;22.10;99.90;;;;;;5011743;28;20030;-35
2023/08/25 07:49:41;;;;;;;4.70;2.10;;;22.10;99.90;;;;;;5011427;28;20566;-39
2023/08/25 07:52:06;;;;;;;4.88;2.20;;;22.10;99.90;;;;;;5011634;28;20053;-36
2023/08/25 07:54:32;;;;;;;4.45;1.70;;;22.10;99.90;;;;;;5010305;28;20018;-42
2023/08/25 07:56:58;;;;;;;3.00;1.92;;;22.10;99.90;;;;;;5011566;28;20384;-39
2023/08/25 07:59:24;;;;;;;4.97;2.10;;;22.10;99.90;;;;;;5011273;28;20030;-41
2023/08/25 08:01:52;;;;;;;3.70;2.00;;;22.10;99.90;;;;;;5011631;28;20049;-39
2023/08/25 08:04:18;;;;;;;7.50;2.30;;;22.10;99.90;;;;;;5011388;28;20480;-37
2023/08/25 08:06:44;;;;;;;9.88;2.20;;;22.00;99.90;;;;;;5011705;28;20040;-37
2023/08/25 08:09:10;;;;;;;5.35;2.08;;;21.70;99.90;;;;;;5010011;28;20034;-38
2023/08/25 08:11:36;;;;;;;11.23;2.30;;;21.70;99.90;;;;;;5011494;28;20120;-37
2023/08/25 08:14:02;;;;;;;5.82;1.90;;;21.70;99.90;;;;;;5011508;28;20140;-37
2023/08/25 08:16:29;;;;;;;5.90;2.30;;;21.80;99.90;;;;;;5011526;28;20105;-39
2023/08/25 08:18:54;;;;;;;4.10;2.20;;;21.80;99.90;;;;;;5011083;28;20024;-35
2023/08/25 08:21:21;;;;;;;6.60;2.80;;;21.80;99.90;;;;;;5011540;28;20034;-38
2023/08/25 08:23:47;;;;;;;7.88;2.60;;;21.80;99.90;;;;;;5011433;28;20029;-42
2023/08/25 08:26:13;;;;;;;9.73;2.58;;;21.80;99.90;;;;;;5011408;28;20033;-39
2023/08/25 08:28:39;;;;;;;5.75;2.30;;;21.80;99.90;;;;;;5011250;28;20025;-42
2023/08/25 08:31:05;;;;;;;4.15;2.63;;;21.90;99.90;;;;;;5011160;28;20033;-39
2023/08/25 08:33:34;;;;;;;7.00;2.47;;;21.90;99.90;;;;;;5011261;28;20064;-35
2023/08/25 08:36:00;;;;;;;3.53;2.10;;;21.90;99.90;;;;;;5011416;28;20028;-37
2023/08/25 08:38:26;;;;;;;5.43;2.28;;;21.90;99.90;;;;;;5011085;28;20410;-39
2023/08/25 08:40:52;;;;;;;6.03;2.10;;;21.90;99.90;;;;;;5013739;28;20029;-35
2023/08/25 08:43:19;;;;;;;7.80;2.45;;;21.90;99.90;;;;;;5014999;28;20028;-40
2023/08/25 08:45:51;;;;;;;3.78;2.10;;;21.90;99.90;;;;;;5014967;28;20026;-38
2023/08/25 08:48:18;;;;;;;5.50;2.28;;;21.90;99.90;;;;;;5014943;28;20484;-42
2023/08/25 08:50:44;;;;;;;4.28;2.10;;;22.00;99.90;;;;;;5013825;28;20034;-39
2023/08/25 08:53:10;;;;;;;4.90;1.90;;;21.90;99.90;;;;;;5015116;28;20399;-37
2023/08/25 08:55:39;;;;;;;5.10;2.28;;;22.00;99.90;;;;;;5014872;28;20022;-38
2023/08/25 08:58:05;;;;;;;6.78;1.95;;;22.00;99.90;;;;;;5014680;28;20522;-39
2023/08/25 09:00:31;;;;;;;3.38;1.90;;;22.00;99.90;;;;;;5014420;28;20105;-39
2023/08/25 09:03:00;;;;;;;2.80;1.90;;;22.00;99.90;;;;;;5014691;28;20485;-38
2023/08/25 09:05:29;;;;;;;6.05;2.17;;;22.00;99.90;;;;;;5014880;28;20026;-38
2023/08/25 09:08:06;;;;;;;9.27;2.55;;;22.00;99.90;;;;;;5013045;28;20430;-36
2023/08/25 09:10:32;;;;;;;9.55;2.00;;;21.80;99.90;;;;;;5014287;28;20061;-42
2023/08/25 09:12:58;;;;;;;8.82;2.53;;;21.70;99.90;;;;;;5014404;28;20061;-38
2023/08/25 09:15:29;;;;;;;6.88;2.28;;;21.70;99.90;;;;;;5014493;28;20048;-43
2023/08/25 09:18:08;;;;;;;5.47;2.30;;;21.80;99.90;;;;;;5014752;28;20104;-40
2023/08/25 09:20:41;;;;;;;5.13;2.20;;;21.80;99.90;;;;;;5014292;28;20041;-40
2023/08/25 09:23:08;;;;;;;6.05;2.35;;;21.90;99.90;;;;;;5014419;28;20391;-38
2023/08/25 09:25:33;;;;;;;4.70;2.60;;;21.90;99.90;;;;;;5014263;28;20088;-39
2023/08/25 09:28:03;;;;;;;8.32;2.42;;;22.00;99.90;;;;;;5014207;28;20644;-42
2023/08/25 09:30:43;;;;;;;5.72;2.30;;;22.00;99.90;;;;;;5013888;28;20029;-35
2023/08/25 09:33:13;;;;;;;6.03;2.17;;;22.00;99.90;;;;;;5014184;28;20026;-35
2023/08/25 09:35:40;;;;;;;5.13;2.38;;;22.00;99.90;;;;;;5014079;28;20022;-35
2023/08/25 09:38:07;;;;;;;5.45;2.50;;;22.10;99.90;;;;;;5014343;28;20037;-38
2023/08/25 09:40:35;;;;;;;5.68;2.15;;;22.10;99.90;;;;;;5013804;28;20065;-44
2023/08/25 09:43:04;;;;;;;3.85;2.10;;;22.10;99.90;;;;;;5013893;28;20026;-39
2023/08/25 09:45:31;;;;;;;2.75;2.00;;;22.10;99.90;;;;;;5013979;28;20026;-35
2023/08/25 09:48:06;;;;;;;3.90;2.15;;;22.10;99.90;;;;;;5013901;28;20388;-43
2023/08/25 09:50:42;;;;;;;3.75;2.08;;;22.10;99.90;;;;;;5013763;28;20022;-37
2023/08/25 09:53:10;;;;;;;5.43;2.85;;;22.20;99.90;;;;;;5013795;28;20061;-39
2023/08/25 09:55:38;;;;;;;5.93;2.10;;;22.20;99.90;;;;;;5013766;28;20026;-41
2023/08/25 09:58:08;;;;;;;4.65;2.50;;;22.20;99.90;;;;;;5013546;28;20088;-41
2023/08/25 10:00:35;;;;;;;3.40;2.10;;;22.20;99.90;;;;;;5013346;28;20369;-41
2023/08/25 10:03:03;;;;;;;5.93;2.47;;;22.20;99.90;;;;;;5013498;28;20052;-47
2023/08/25 10:05:32;;;;;;;5.63;2.08;;;22.20;99.90;;;;;;5013540;28;20018;-36
2023/08/25 10:07:59;;;;;;;3.90;2.35;;;22.20;99.90;;;;;;5013395;28;20028;-39
2023/08/25 10:10:26;;;;;;;4.15;2.10;;;22.30;99.90;;;;;;5013498;28;20056;-38
2023/08/25 10:12:55;;;;;;;3.45;2.10;;;22.30;99.90;;;;;;5013369;28;20026;-38
2023/08/25 10:15:22;;;;;;;4.85;2.25;;;22.30;99.90;;;;;;5013240;28;20033;-41
2023/08/25 10:17:49;;;;;;;5.53;2.38;;;22.30;99.90;;;;;;5013336;28;20101;-38
2023/08/25 10:20:15;;;;;;;4.53;2.45;;;22.30;99.90;;;;;;5011720;28;20022;-39
2023/08/25 10:22:45;;;;;;;4.30;2.80;;;22.30;99.90;;;;;;5013191;28;20026;-37
2023/08/25 10:25:13;;;;;;;4.03;2.35;;;22.30;99.90;;;;;;5013292;28;20029;-41
2023/08/25 10:27:40;;;;;;;3.42;2.38;;;22.30;99.90;;;;;;5012958;28;20080;-37
2023/08/25 10:30:06;;;;;;;2.72;2.03;;;22.30;99.90;;;;;;5012829;28;20033;-40
2023/08/25 10:33:15;;;;;;;4.13;2.20;;;22.30;99.90;;;;;;5012952;28;20021;-40
2023/08/25 10:35:48;;;;;;;4.10;1.83;;;22.40;99.90;;;;;;5011210;28;20034;-36
2023/08/25 10:38:21;;;;;;;3.80;1.95;;;22.40;99.90;;;;;;5012827;28;20045;-39
2023/08/25 10:40:50;;;;;;;3.20;2.15;;;22.40;99.90;;;;;;5012903;28;20022;-39
2023/08/25 10:43:24;;;;;;;5.50;2.53;;;22.40;99.90;;;;;;5012875;28;20026;-35
2023/08/25 10:45:52;;;;;;;3.65;2.45;;;22.40;99.90;;;;;;5014357;28;20037;-38
2023/08/25 10:48:21;;;;;;;3.78;1.95;;;22.40;99.90;;;;;;5012973;28;20040;-39
2023/08/25 10:50:50;;;;;;;3.75;1.90;;;22.40;99.90;;;;;;5012365;28;20114;-43
2023/08/25 10:53:36;;;;;;;3.78;2.08;;;22.40;99.90;;;;;;5012943;28;20026;-45
2023/08/25 10:56:21;;;;;;;3.45;2.20;;;22.40;99.90;;;;;;5012621;28;20388;-35
2023/08/25 10:58:54;;;;;;;3.38;2.30;;;22.40;99.90;;;;;;5012434;28;20025;-39
2023/08/25 11:01:23;;;;;;;3.28;2.00;;;22.40;99.90;;;;;;5012375;28;20034;-38
2023/08/25 11:04:24;;;;;;;3.80;2.40;;;22.40;99.90;;;;;;5011971;28;20022;-43
2023/08/25 11:06:55;;;;;;;1.98;1.77;;;22.40;99.90;;;;;;5012476;28;20028;-44
2023/08/25 11:09:24;;;;;;;2.90;1.92;;;22.40;99.90;;;;;;5010888;28;20034;-39
2023/08/25 11:11:58;;;;;;;3.13;1.92;;;22.50;99.90;;;;;;5012168;28;20072;-43
2023/08/25 11:14:29;;;;;;;4.97;2.17;;;22.50;99.90;;;;;;5011072;28;20121;-37
2023/08/25 11:16:56;;;;;;;2.63;1.90;;;22.50;99.90;;;;;;5012864;28;20029;-39
2023/08/25 11:19:24;;;;;;;3.15;1.95;;;22.40;99.90;;;;;;5012708;28;20029;-39
2023/08/25 11:22:25;;;;;;;3.67;2.28;;;22.50;99.90;;;;;;5012347;28;20026;-35
2023/08/25 11:24:50;;;;;;;4.60;2.15;;;22.40;99.90;;;;;;4971191;28;20109;-40
2023/08/25 11:27:16;;;;;;;4.05;1.88;;;22.50;99.90;;;;;;5003561;28;20120;-38
2023/08/25 11:29:45;;;;;;;2.50;2.10;;;22.50;99.90;;;;;;5011831;28;20030;-41
2023/08/25 11:32:12;;;;;;;3.30;1.77;;;22.50;99.90;;;;;;5011925;28;20480;-39
2023/08/25 11:34:38;;;;;;;2.60;1.73;;;22.50;99.90;;;;;;5011884;28;20472;-41
2023/08/25 11:37:03;;;;;;;3.53;2.38;;;22.50;99.90;;;;;;5011744;28;20084;-41
2023/08/25 11:39:29;;;;;;;3.58;2.10;;;22.50;99.90;;;;;;5011597;28;20088;-39
2023/08/25 11:41:56;;;;;;;2.97;1.80;;;22.50;99.90;;;;;;5011889;28;20030;-42
2023/08/25 11:44:25;;;;;;;2.58;2.13;;;22.50;99.90;;;;;;5011787;28;20029;-38
2023/08/25 11:46:53;;;;;;;3.47;1.80;;;22.50;99.90;;;;;;5011807;28;20021;-38
2023/08/25 11:49:20;;;;;;;2.95;2.20;;;22.50;99.90;;;;;;5011363;28;20022;-36
2023/08/25 11:51:52;;;;;;;3.90;2.30;;;22.50;99.90;;;;;;5011717;28;20026;-39
2023/08/25 11:54:18;;;;;;;3.42;2.10;;;22.50;99.90;;;;;;5011709;28;20052;-39
2023/08/25 11:56:51;;;;;;;3.03;1.90;;;22.50;99.90;;;;;;5011755;28;20018;-37
2023/08/25 11:59:18;;;;;;;3.40;2.33;;;22.50;99.90;;;;;;5011341;28;20014;-41
2023/08/25 12:01:49;;;;;;;4.25;2.20;;;22.60;99.90;;;;;;5011464;28;20049;-39
2023/08/25 12:04:25;;;;;;;2.38;1.92;;;22.60;99.90;;;;;;5011629;28;20105;-38
2023/08/25 12:06:57;;;;;;;2.88;2.03;;;22.60;99.90;;;;;;5011578;28;20491;-39
2023/08/25 12:09:24;;;;;;;2.67;2.05;;;22.60;99.90;;;;;;5011569;28;20041;-38
2023/08/25 12:11:53;;;;;;;3.92;1.80;;;22.60;99.90;;;;;;5010111;28;20033;-42
2023/08/25 12:14:26;;;;;;;1.90;1.70;;;22.60;99.90;;;;;;5011554;28;20026;-38
2023/08/25 12:16:52;;;;;;;2.85;1.90;;;22.60;99.90;;;;;;5015544;28;20084;-41
2023/08/25 12:19:18;;;;;;;3.15;2.03;;;22.70;99.90;;;;;;5015104;28;20483;-43
2023/08/25 12:21:43;;;;;;;4.57;2.05;;;22.60;99.90;;;;;;5015421;28;20129;-41
2023/08/25 12:24:09;;;;;;;7.28;2.42;;;22.60;99.90;;;;;;5015427;28;20470;-39
2023/08/25 12:26:35;;;;;;;6.55;2.25;;;22.60;99.90;;;;;;5015309;28;20030;-40
2023/08/25 12:29:00;;;;;;;4.18;2.10;;;22.60;99.90;;;;;;5015067;28;20109;-41
2023/08/25 12:31:26;;;;;;;8.63;2.50;;;22.60;99.90;;;;;;5015240;28;20392;-42
2023/08/25 12:33:51;;;;;;;3.63;2.20;;;22.60;99.90;;;;;;5015261;28;20022;-41
2023/08/25 12:36:17;;;;;;;3.67;2.40;;;22.60;99.90;;;;;;5015291;28;20096;-41
2023/08/25 12:38:43;;;;;;;6.47;2.33;;;22.70;99.90;;;;;;5014945;28;20185;-41
2023/08/25 12:41:08;;;;;;;5.90;2.40;;;22.60;99.90;;;;;;5014901;28;20553;-38
2023/08/25 12:43:35;;;;;;;3.72;2.40;;;22.70;99.90;;;;;;5015219;28;20034;-41
2023/08/25 12:46:01;;;;;;;4.35;2.45;;;22.70;99.90;;;;;;5013829;28;20399;-45